Lontetree, Wyoming
Current Conditions -  °F | °C
As of 5:55 AM on Wednesday 26 Nov 2014 (Local Time) from KFBR Reporting Station
Scattered Clouds Scattered Clouds  
Wind Chill: 28°   Ceiling: Unl
Heat Index: 37°   Visibility: 10mi
Dew Point: 32°   Wind: 14mph
Humidity: 84%   Direction: 260°W
Pressure: 30.29"   Gusts: 26mph
Location:  41.04°N, 110.17°W
Report Text: KFBR 261255Z AUTO 26012G23KT 10SM SCT026 SCT030 03/00 A3029 RMK AO2 T00250001
Loading
Personal Weather Stations






























Interactive Weather Map New forecast layout! Learn more

10-Day Weather Forecast

Advertisements
Track Severe Weather on mobile